Time;durP1;ratioP1;P1;durP2;ratioP2;P2;SDS_P1;SDS_P2;PMS_P1;PMS_P2;Temp;Humidity;BMP_temperature;BMP_pressure;BME280_temperature;BME280_humidity;BME280_pressure;Samples;Min_cycle;Max_cycle;Signal;HPM_P1;HPM_P2
2023/09/07 00:00:51;;;;;;;;;;;23.30;51.70;;;;;;5025931;28;19913;-68
2023/09/07 00:03:18;;;;;;;;;;;23.60;50.20;;;;;;5025598;28;19917;-68
2023/09/07 00:05:45;;;;;;;;;;;23.80;50.30;;;;;;5020558;28;20278;-69
2023/09/07 00:08:12;;;;;;;;;;;23.60;49.60;;;;;;5023663;28;20008;-69
2023/09/07 00:10:38;;;;;;;;;;;23.30;50.30;;;;;;5024787;28;20333;-69
2023/09/07 00:13:05;;;;;;;;;;;23.00;51.80;;;;;;5025585;28;19929;-69
2023/09/07 00:15:36;;;;;;;;;;;23.40;50.00;;;;;;5021458;28;19921;-70
2023/09/07 00:18:03;;;;;;;;;;;23.20;50.40;;;;;;5029169;28;20004;-68
2023/09/07 00:20:29;;;;;;;;;;;23.40;50.10;;;;;;5024688;28;19983;-68
2023/09/07 00:22:56;;;;;;;;;;;24.10;49.50;;;;;;5024540;28;19932;-69
2023/09/07 00:25:23;;;;;;;;;;;24.20;48.30;;;;;;5026125;28;19980;-69
2023/09/07 00:27:52;;;;;;;;;;;24.10;48.30;;;;;;5028055;28;19975;-69
2023/09/07 00:30:19;;;;;;;;;;;24.20;48.40;;;;;;5024158;28;19917;-68
2023/09/07 00:32:46;;;;;;;;;;;24.40;47.90;;;;;;5025909;28;20002;-68
2023/09/07 00:35:13;;;;;;;;;;;24.90;48.50;;;;;;5022730;28;19928;-67
2023/09/07 00:37:39;;;;;;;;;;;24.70;47.20;;;;;;5025103;28;19935;-69
2023/09/07 00:40:08;;;;;;;;;;;24.50;47.50;;;;;;5024248;28;20390;-69
2023/09/07 00:42:36;;;;;;;;;;;24.40;48.10;;;;;;5023629;28;20548;-68
2023/09/07 00:45:03;;;;;;;;;;;24.90;47.80;;;;;;5019883;28;20451;-69
2023/09/07 00:47:30;;;;;;;;;;;25.30;47.10;;;;;;5023361;28;20058;-69
2023/09/07 00:49:58;;;;;;;;;;;25.30;46.00;;;;;;5024325;28;20015;-68
2023/09/07 00:52:25;;;;;;;;;;;25.20;46.90;;;;;;5020553;28;20871;-68
2023/09/07 00:54:51;;;;;;;;;;;24.90;45.60;;;;;;5021520;28;20334;-70
2023/09/07 00:57:18;;;;;;;;;;;24.60;46.10;;;;;;5028390;28;19916;-68
2023/09/07 00:59:45;;;;;;;;;;;25.00;45.50;;;;;;5025393;28;19932;-69
2023/09/07 01:02:11;;;;;;;;;;;25.40;45.90;;;;;;5025147;28;19913;-70
2023/09/07 01:04:38;;;;;;;;;;;25.50;45.00;;;;;;5025752;28;20420;-69
2023/09/07 01:07:34;;;;;;;;;;;25.70;43.70;;;;;;5026390;28;19982;-69
2023/09/07 01:10:02;;;;;;;;;;;25.70;44.40;;;;;;5002317;28;20421;-69
2023/09/07 01:12:29;;;;;;;;;;;26.20;44.20;;;;;;5024522;28;19917;-70
2023/09/07 01:14:55;;;;;;;;;;;26.40;44.20;;;;;;5024403;28;19935;-70
2023/09/07 01:17:23;;;;;;;;;;;26.50;43.60;;;;;;5022691;28;19978;-70
2023/09/07 01:19:50;;;;;;;;;;;26.70;43.40;;;;;;5020002;28;19921;-69
2023/09/07 01:22:17;;;;;;;;;;;27.00;42.90;;;;;;5023058;28;19913;-69
2023/09/07 01:24:45;;;;;;;;;;;26.70;42.20;;;;;;5024742;28;19947;-69
2023/09/07 01:27:13;;;;;;;;;;;26.90;42.90;;;;;;5024192;28;19959;-70
2023/09/07 01:29:40;;;;;;;;;;;26.70;43.10;;;;;;5023412;28;19913;-69
2023/09/07 01:32:09;;;;;;;;;;;26.40;43.40;;;;;;5024241;28;19960;-70
2023/09/07 01:34:38;;;;;;;;;;;26.70;44.10;;;;;;5023790;28;20349;-70
2023/09/07 01:37:04;;;;;;;;;;;26.90;43.20;;;;;;5023157;28;19921;-69
2023/09/07 01:39:31;;;;;;;;;;;26.70;43.00;;;;;;5026895;28;19928;-69
2023/09/07 01:41:58;;;;;;;;;;;26.60;43.80;;;;;;5022955;28;20028;-71
2023/09/07 01:44:26;;;;;;;;;;;26.80;44.20;;;;;;5022312;28;20012;-70
2023/09/07 01:46:53;;;;;;;;;;;26.80;43.70;;;;;;5022345;28;19920;-70
2023/09/07 01:49:20;;;;;;;;;;;27.00;44.30;;;;;;5025724;28;19920;-69
2023/09/07 01:51:46;;;;;;;;;;;27.40;43.50;;;;;;5021890;28;19932;-70
2023/09/07 01:54:13;;;;;;;;;;;27.60;44.00;;;;;;5022886;28;19939;-69
2023/09/07 01:56:41;;;;;;;;;;;27.70;43.90;;;;;;5022625;28;20338;-69
2023/09/07 01:59:07;;;;;;;;;;;27.90;42.70;;;;;;5019785;28;19991;-70
2023/09/07 02:01:36;;;;;;;;;;;28.10;43.50;;;;;;5020526;28;19975;-70
2023/09/07 02:04:03;;;;;;;;;;;27.90;44.30;;;;;;5021188;28;19921;-70
2023/09/07 02:06:30;;;;;;;;;;;28.10;43.40;;;;;;5024846;28;19920;-70
2023/09/07 02:08:56;;;;;;;;;;;28.40;43.90;;;;;;5026117;28;19913;-70
2023/09/07 02:11:23;;;;;;;;;;;28.60;43.00;;;;;;5024382;28;20278;-70
2023/09/07 02:13:50;;;;;;;;;;;28.40;43.40;;;;;;5021697;28;19999;-69
2023/09/07 02:16:18;;;;;;;;;;;28.50;43.00;;;;;;5023199;28;19913;-70
2023/09/07 02:18:45;;;;;;;;;;;28.40;43.50;;;;;;5025476;28;20409;-70
2023/09/07 02:21:12;;;;;;;;;;;28.10;43.60;;;;;;5024174;28;20362;-70
2023/09/07 02:23:38;;;;;;;;;;;28.10;43.70;;;;;;5022443;28;20042;-69
2023/09/07 02:26:05;;;;;;;;;;;28.10;43.90;;;;;;5021116;28;20583;-70
2023/09/07 02:28:32;;;;;;;;;;;28.60;43.40;;;;;;5020032;28;19923;-70
2023/09/07 02:31:05;;;;;;;;;;;28.40;42.60;;;;;;5025138;28;19924;-70
2023/09/07 02:33:32;;;;;;;;;;;28.60;43.60;;;;;;5022020;28;19937;-70
2023/09/07 02:35:59;;;;;;;;;;;28.90;42.70;;;;;;5025513;28;20031;-69
2023/09/07 02:38:26;;;;;;;;;;;28.70;43.20;;;;;;5024382;28;19967;-70
2023/09/07 02:40:53;;;;;;;;;;;29.00;43.20;;;;;;5026412;28;20002;-69
2023/09/07 02:43:19;;;;;;;;;;;29.00;42.40;;;;;;5025329;28;20015;-70
2023/09/07 02:45:46;;;;;;;;;;;28.80;43.00;;;;;;5025909;28;19971;-70
2023/09/07 02:48:13;;;;;;;;;;;28.70;43.50;;;;;;5025432;28;19925;-70
2023/09/07 02:50:39;;;;;;;;;;;29.00;42.70;;;;;;5025130;28;20351;-70
2023/09/07 02:53:06;;;;;;;;;;;29.00;42.20;;;;;;5022277;28;20354;-70
2023/09/07 02:55:34;;;;;;;;;;;29.10;42.90;;;;;;5023818;28;20115;-70
2023/09/07 02:58:03;;;;;;;;;;;29.00;42.60;;;;;;5022206;28;20879;-70
2023/09/07 03:00:29;;;;;;;;;;;29.30;43.00;;;;;;5025047;28;19913;-70
2023/09/07 03:02:56;;;;;;;;;;;29.40;42.70;;;;;;5024911;28;20054;-71
2023/09/07 03:05:23;;;;;;;;;;;29.50;42.90;;;;;;5028483;28;19960;-70
2023/09/07 03:07:50;;;;;;;;;;;29.30;42.80;;;;;;5028932;28;19975;-72
2023/09/07 03:10:16;;;;;;;;;;;29.50;42.90;;;;;;5031194;28;20266;-70
2023/09/07 03:12:43;;;;;;;;;;;29.80;42.70;;;;;;5031597;28;19976;-70
2023/09/07 03:15:10;;;;;;;;;;;29.70;42.90;;;;;;5029696;28;19951;-70
2023/09/07 03:17:36;;;;;;;;;;;29.80;42.40;;;;;;5027860;28;19921;-70
2023/09/07 03:20:24;;;;;;;;;;;29.90;42.90;;;;;;5027866;28;19928;-70
2023/09/07 03:22:50;;;;;;;;;;;30.00;42.50;;;;;;5027908;28;19920;-70
2023/09/07 03:25:16;;;;;;;;;;;29.70;42.40;;;;;;5027708;28;20358;-70
2023/09/07 03:27:43;;;;;;;;;;;30.00;42.40;;;;;;5027816;28;20466;-70
2023/09/07 03:30:10;;;;;;;;;;;29.90;42.30;;;;;;5031516;28;19916;-70
2023/09/07 03:32:37;;;;;;;;;;;29.70;42.00;;;;;;5029875;28;19928;-70
2023/09/07 03:35:09;;;;;;;;;;;29.80;42.40;;;;;;5025329;28;19921;-68
2023/09/07 03:37:37;;;;;;;;;;;30.10;42.20;;;;;;5028518;28;19920;-67
2023/09/07 03:40:05;;;;;;;;;;;30.00;42.20;;;;;;5025602;28;19952;-68
2023/09/07 03:42:31;;;;;;;;;;;29.80;42.30;;;;;;5024465;28;20394;-69
2023/09/07 03:44:58;;;;;;;;;;;29.90;42.90;;;;;;5027535;28;19929;-69
2023/09/07 03:47:29;;;;;;;;;;;30.10;42.50;;;;;;5029563;28;19979;-68
2023/09/07 03:50:00;;;;;;;;;;;30.00;42.50;;;;;;5027510;28;19952;-69
2023/09/07 03:52:30;;;;;;;;;;;30.10;42.40;;;;;;5026950;28;21374;-69
2023/09/07 03:54:57;;;;;;;;;;;30.40;42.20;;;;;;5028734;28;20584;-69
2023/09/07 03:57:27;;;;;;;;;;;30.50;41.40;;;;;;5029732;28;20019;-68
2023/09/07 03:59:57;;;;;;;;;;;30.50;42.00;;;;;;5044155;28;20445;-69
2023/09/07 04:02:24;;;;;;;;;;;30.40;42.30;;;;;;5025262;28;19921;-69
2023/09/07 04:04:55;;;;;;;;;;;30.50;41.20;;;;;;5024604;28;19956;-69
2023/09/07 04:07:21;;;;;;;;;;;30.40;41.60;;;;;;5027648;28;19913;-69
2023/09/07 04:09:48;;;;;;;;;;;30.20;41.90;;;;;;5023633;28;19917;-69
2023/09/07 04:12:15;;;;;;;;;;;30.40;41.50;;;;;;5024779;28;19913;-68
2023/09/07 04:14:42;;;;;;;;;;;30.30;41.50;;;;;;5024441;28;20354;-68
2023/09/07 04:17:09;;;;;;;;;;;30.50;41.60;;;;;;5031583;28;19920;-69
2023/09/07 04:19:35;;;;;;;;;;;30.60;41.20;;;;;;5026961;28;19960;-68
2023/09/07 04:22:02;;;;;;;;;;;30.50;41.50;;;;;;5030587;28;20278;-69
2023/09/07 04:24:29;;;;;;;;;;;30.50;41.80;;;;;;5027033;28;19917;-69
2023/09/07 04:26:59;;;;;;;;;;;30.20;41.70;;;;;;5030303;28;19922;-69
2023/09/07 04:29:26;;;;;;;;;;;30.10;41.70;;;;;;5027450;28;19924;-69
2023/09/07 04:31:53;;;;;;;;;;;30.00;41.70;;;;;;5028531;28;19928;-69
2023/09/07 04:34:21;;;;;;;;;;;29.90;42.40;;;;;;5030054;28;19944;-68
2023/09/07 04:36:48;;;;;;;;;;;30.20;42.00;;;;;;5031113;28;19974;-70
2023/09/07 04:39:15;;;;;;;;;;;30.10;42.00;;;;;;5033655;28;19996;-69
2023/09/07 04:41:41;;;;;;;;;;;30.50;41.10;;;;;;5031525;28;19963;-70
2023/09/07 04:44:09;;;;;;;;;;;30.70;41.00;;;;;;5032486;28;19928;-69
2023/09/07 04:46:35;;;;;;;;;;;30.70;40.60;;;;;;5032981;28;19913;-67
2023/09/07 04:49:02;;;;;;;;;;;30.90;40.70;;;;;;5027264;28;19917;-69
2023/09/07 04:51:29;;;;;;;;;;;30.50;40.50;;;;;;5030414;28;20354;-69
2023/09/07 04:53:56;;;;;;;;;;;30.60;41.10;;;;;;5031393;28;19921;-69
2023/09/07 04:56:25;;;;;;;;;;;30.50;41.10;;;;;;5032595;28;19924;-70
2023/09/07 04:58:52;;;;;;;;;;;30.30;40.90;;;;;;5027720;28;19935;-69
2023/09/07 05:01:18;;;;;;;;;;;30.40;40.50;;;;;;5030941;28;19917;-69
2023/09/07 05:03:45;;;;;;;;;;;30.10;39.90;;;;;;5031785;28;20262;-69
2023/09/07 05:06:13;;;;;;;;;;;30.10;40.10;;;;;;5031657;28;20362;-68
2023/09/07 05:08:40;;;;;;;;;;;30.30;39.40;;;;;;5044708;28;19918;-70
2023/09/07 05:11:07;;;;;;;;;;;30.30;39.80;;;;;;5028670;28;19921;-69
2023/09/07 05:13:33;;;;;;;;;;;30.20;39.60;;;;;;5026147;28;20137;-70
2023/09/07 05:16:04;;;;;;;;;;;30.40;40.00;;;;;;5028963;28;19921;-70
2023/09/07 05:18:31;;;;;;;;;;;30.60;38.60;;;;;;5032232;28;19966;-71
2023/09/07 05:20:58;;;;;;;;;;;30.60;38.00;;;;;;5027954;28;19929;-70
2023/09/07 05:23:26;;;;;;;;;;;30.60;37.60;;;;;;5027715;28;19928;-70
2023/09/07 05:25:53;;;;;;;;;;;30.50;37.70;;;;;;5029632;28;19913;-70
2023/09/07 05:28:20;;;;;;;;;;;30.70;37.40;;;;;;5029446;28;20569;-70
2023/09/07 05:30:47;;;;;;;;;;;30.70;37.10;;;;;;5029710;28;19913;-69
2023/09/07 05:33:15;;;;;;;;;;;30.70;36.50;;;;;;5021395;28;19925;-70
2023/09/07 05:35:42;;;;;;;;;;;30.60;36.30;;;;;;5026706;28;19921;-70
2023/09/07 05:38:09;;;;;;;;;;;30.50;36.20;;;;;;5027644;28;20031;-69
2023/09/07 05:40:39;;;;;;;;;;;30.50;35.20;;;;;;5030990;28;19940;-70
2023/09/07 05:43:06;;;;;;;;;;;30.30;35.10;;;;;;5027803;28;19924;-70
2023/09/07 05:45:37;;;;;;;;;;;30.20;35.30;;;;;;5027472;28;19928;-69
2023/09/07 05:48:04;;;;;;;;;;;30.30;35.50;;;;;;5024065;28;19928;-69
2023/09/07 05:50:32;;;;;;;;;;;30.20;37.90;;;;;;5029921;28;19913;-70
2023/09/07 05:52:58;;;;;;;;;;;30.20;38.50;;;;;;5027922;28;19913;-70
2023/09/07 05:55:25;;;;;;;;;;;30.00;38.60;;;;;;5031217;28;20363;-70
2023/09/07 05:57:54;;;;;;;;;;;29.80;38.60;;;;;;5026167;28;19917;-70
2023/09/07 06:00:20;;;;;;;;;;;29.80;39.00;;;;;;5039425;28;19917;-70
2023/09/07 06:02:50;;;;;;;;;;;29.80;38.80;;;;;;5029353;28;19921;-68
2023/09/07 06:05:17;;;;;;;;;;;29.70;39.30;;;;;;5044596;28;19956;-70
2023/09/07 06:07:44;;;;;;;;;;;29.80;39.10;;;;;;5028724;28;20335;-71
2023/09/07 06:10:11;;;;;;;;;;;29.80;39.20;;;;;;5030256;28;20271;-71
2023/09/07 06:12:38;;;;;;;;;;;29.80;39.00;;;;;;5047032;28;20012;-71
2023/09/07 06:15:05;;;;;;;;;;;29.70;39.00;;;;;;5030646;28;19925;-70
2023/09/07 06:17:32;;;;;;;;;;;29.60;39.00;;;;;;5028818;28;19920;-72
2023/09/07 06:19:59;;;;;;;;;;;29.70;38.70;;;;;;5030270;28;19983;-71
2023/09/07 06:22:26;;;;;;;;;;;29.70;38.70;;;;;;5028034;28;20308;-69
2023/09/07 06:24:52;;;;;;;;;;;29.60;38.30;;;;;;5025240;28;19929;-71
2023/09/07 06:27:19;;;;;;;;;;;29.50;38.60;;;;;;5031985;28;20007;-71
2023/09/07 06:29:46;;;;;;;;;;;29.30;38.50;;;;;;5030150;28;19913;-71
2023/09/07 06:32:13;;;;;;;;;;;29.10;38.20;;;;;;5029289;28;20342;-71
2023/09/07 06:34:39;;;;;;;;;;;28.90;38.40;;;;;;5030813;28;19967;-71
2023/09/07 06:37:06;;;;;;;;;;;28.70;39.00;;;;;;5030115;28;19914;-71
2023/09/07 06:39:33;;;;;;;;;;;28.50;39.40;;;;;;5031135;28;19920;-71
2023/09/07 06:42:00;;;;;;;;;;;28.40;39.20;;;;;;5032071;28;19909;-71
2023/09/07 06:44:27;;;;;;;;;;;28.40;39.30;;;;;;5037766;28;19917;-71
2023/09/07 06:46:54;;;;;;;;;;;28.50;38.80;;;;;;5034822;28;19924;-72
2023/09/07 06:49:21;;;;;;;;;;;28.60;39.10;;;;;;5050820;28;19916;-72
2023/09/07 06:51:47;;;;;;;;;;;28.60;39.00;;;;;;5046711;28;19925;-72
2023/09/07 06:54:14;;;;;;;;;;;28.70;39.00;;;;;;5035565;28;19921;-72
2023/09/07 06:56:41;;;;;;;;;;;28.70;39.00;;;;;;5035077;28;19909;-71
2023/09/07 06:59:08;;;;;;;;;;;28.60;38.50;;;;;;5033214;28;19936;-72
2023/09/07 07:01:35;;;;;;;;;;;28.50;38.30;;;;;;5034245;28;19924;-72
2023/09/07 07:04:02;;;;;;;;;;;28.50;38.40;;;;;;5035835;28;19913;-72
2023/09/07 07:06:29;;;;;;;;;;;28.40;38.20;;;;;;5035115;28;19913;-73
2023/09/07 07:08:55;;;;;;;;;;;28.30;38.50;;;;;;5034091;28;20361;-72
2023/09/07 07:11:22;;;;;;;;;;;28.30;38.60;;;;;;5035364;28;19917;-71
2023/09/07 07:13:49;;;;;;;;;;;28.10;39.00;;;;;;5034973;28;20011;-72
2023/09/07 07:16:16;;;;;;;;;;;27.90;39.40;;;;;;5035763;28;19913;-70
2023/09/07 07:18:43;;;;;;;;;;;27.80;39.50;;;;;;5048634;28;20412;-72
2023/09/07 07:21:10;;;;;;;;;;;27.70;39.20;;;;;;5034458;28;19917;-72
2023/09/07 07:23:36;;;;;;;;;;;27.50;39.70;;;;;;5034681;28;19932;-71
2023/09/07 07:26:03;;;;;;;;;;;27.40;40.00;;;;;;5035054;28;19915;-72
2023/09/07 07:28:30;;;;;;;;;;;27.20;40.10;;;;;;5032931;28;20353;-69
2023/09/07 07:30:57;;;;;;;;;;;27.10;40.30;;;;;;5030631;28;19924;-70
2023/09/07 07:33:23;;;;;;;;;;;27.10;40.50;;;;;;5031406;28;19972;-71
2023/09/07 07:35:50;;;;;;;;;;;26.90;40.50;;;;;;5030911;28;19919;-70
2023/09/07 07:38:17;;;;;;;;;;;26.80;40.40;;;;;;5027835;28;19917;-69
2023/09/07 07:40:44;;;;;;;;;;;26.70;40.70;;;;;;5026280;28;19970;-69
2023/09/07 07:43:13;;;;;;;;;;;26.50;41.10;;;;;;5021949;28;20329;-70
2023/09/07 07:45:39;;;;;;;;;;;26.50;41.80;;;;;;5028265;28;19928;-69
2023/09/07 07:48:07;;;;;;;;;;;26.50;43.10;;;;;;5027335;28;19928;-69
2023/09/07 07:50:39;;;;;;;;;;;26.40;44.90;;;;;;5030707;28;19920;-69
2023/09/07 07:53:08;;;;;;;;;;;26.30;46.70;;;;;;5022921;28;19925;-70
2023/09/07 07:55:38;;;;;;;;;;;26.20;47.90;;;;;;5029061;28;19997;-69
2023/09/07 07:58:07;;;;;;;;;;;26.10;49.20;;;;;;5033724;28;19923;-70
2023/09/07 08:00:35;;;;;;;;;;;25.90;50.70;;;;;;5033510;28;20261;-70
2023/09/07 08:03:03;;;;;;;;;;;25.70;51.70;;;;;;5032282;28;19920;-69
2023/09/07 08:05:30;;;;;;;;;;;25.40;53.60;;;;;;5032203;28;19920;-68
2023/09/07 08:07:56;;;;;;;;;;;25.30;53.70;;;;;;5032925;28;20290;-70
2023/09/07 08:10:23;;;;;;;;;;;25.10;54.30;;;;;;5032998;28;19917;-70
2023/09/07 08:12:59;;;;;;;;;;;25.00;55.00;;;;;;5029073;28;20349;-69
2023/09/07 08:15:26;;;;;;;;;;;24.80;55.70;;;;;;5026046;28;19928;-69
2023/09/07 08:17:52;;;;;;;;;;;24.70;56.10;;;;;;5030347;28;19929;-69
2023/09/07 08:20:19;;;;;;;;;;;24.70;56.70;;;;;;5024256;28;19921;-70
2023/09/07 08:22:46;;;;;;;;;;;24.60;57.30;;;;;;5031022;28;19917;-69
2023/09/07 08:25:13;;;;;;;;;;;24.50;57.80;;;;;;5025648;28;20406;-68
2023/09/07 08:27:44;;;;;;;;;;;24.40;58.20;;;;;;5028641;28;20012;-69
2023/09/07 08:30:18;;;;;;;;;;;24.40;58.70;;;;;;5030012;28;20322;-69
2023/09/07 08:32:51;;;;;;;;;;;24.40;59.00;;;;;;5031426;28;20349;-69
2023/09/07 08:35:17;;;;;;;;;;;24.30;59.40;;;;;;5029329;28;19929;-69
2023/09/07 08:37:44;;;;;;;;;;;24.20;59.70;;;;;;5029674;28;20290;-69
2023/09/07 08:40:11;;;;;;;;;;;24.20;59.90;;;;;;5030535;28;20317;-68
2023/09/07 08:42:39;;;;;;;;;;;24.10;60.20;;;;;;5029189;28;19947;-69
2023/09/07 08:45:08;;;;;;;;;;;24.10;60.30;;;;;;5026097;28;19948;-67
2023/09/07 08:47:36;;;;;;;;;;;24.10;60.40;;;;;;5042990;28;19913;-69
2023/09/07 08:50:03;;;;;;;;;;;24.00;60.80;;;;;;5028706;28;20389;-70
2023/09/07 08:52:29;;;;;;;;;;;23.90;60.80;;;;;;5032333;28;19920;-69
2023/09/07 08:54:58;;;;;;;;;;;23.90;60.60;;;;;;5026166;28;19976;-69
2023/09/07 08:57:25;;;;;;;;;;;24.00;60.60;;;;;;5026181;28;20024;-70
2023/09/07 08:59:51;;;;;;;;;;;24.00;60.50;;;;;;5023509;28;20067;-70
2023/09/07 09:02:18;;;;;;;;;;;24.00;60.50;;;;;;5030992;28;19921;-70
2023/09/07 09:04:45;;;;;;;;;;;24.00;60.20;;;;;;5031275;28;19964;-70
2023/09/07 09:07:11;;;;;;;;;;;24.00;60.20;;;;;;5027149;28;19917;-70
2023/09/07 09:09:38;;;;;;;;;;;24.00;60.20;;;;;;5029083;28;20309;-70
2023/09/07 09:12:08;;;;;;;;;;;24.00;60.10;;;;;;5030389;28;19959;-68
2023/09/07 09:14:35;;;;;;;;;;;24.10;60.10;;;;;;5024846;28;20506;-68
2023/09/07 09:17:02;;;;;;;;;;;24.10;60.00;;;;;;5026526;28;19917;-69
2023/09/07 09:19:36;;;;;;;;;;;24.10;60.00;;;;;;5027378;28;20373;-69
2023/09/07 09:22:05;;;;;;;;;;;24.00;60.10;;;;;;5045350;28;19924;-70
2023/09/07 09:24:34;;;;;;;;;;;24.00;60.10;;;;;;5023490;28;19917;-69
2023/09/07 09:27:00;;;;;;;;;;;24.00;60.40;;;;;;5025832;28;20247;-69
2023/09/07 09:29:27;;;;;;;;;;;23.90;60.60;;;;;;5030296;28;20130;-69
2023/09/07 09:31:54;;;;;;;;;;;23.90;60.80;;;;;;5029162;28;19917;-70
2023/09/07 09:34:21;;;;;;;;;;;23.80;61.50;;;;;;5029021;28;19996;-69
2023/09/07 09:36:48;;;;;;;;;;;23.80;61.20;;;;;;5025145;28;19921;-69
2023/09/07 09:39:24;;;;;;;;;;;23.80;61.40;;;;;;5026813;28;19933;-70
2023/09/07 09:41:52;;;;;;;;;;;23.70;61.60;;;;;;5026117;28;20012;-70
2023/09/07 09:44:21;;;;;;;;;;;23.70;61.90;;;;;;5024388;28;19932;-70
2023/09/07 09:46:48;;;;;;;;;;;23.70;62.20;;;;;;5025717;28;19944;-69
2023/09/07 09:49:15;;;;;;;;;;;23.60;62.60;;;;;;5025100;28;20008;-69
2023/09/07 09:51:43;;;;;;;;;;;23.60;63.00;;;;;;5027459;28;19982;-69
2023/09/07 09:54:10;;;;;;;;;;;23.60;62.90;;;;;;5027757;28;19925;-69
2023/09/07 09:56:36;;;;;;;;;;;23.50;63.00;;;;;;5024981;28;20347;-69
2023/09/07 09:59:04;;;;;;;;;;;23.50;63.40;;;;;;5027024;28;19917;-69
2023/09/07 10:01:37;;;;;;;;;;;23.40;63.50;;;;;;5024711;28;19917;-70
2023/09/07 10:04:04;;;;;;;;;;;23.50;63.30;;;;;;5027614;28;20382;-70
2023/09/07 10:06:30;;;;;;;;;;;23.40;63.60;;;;;;5031177;28;19913;-69
2023/09/07 10:09:03;;;;;;;;;;;23.40;63.50;;;;;;5028542;28;19913;-70
2023/09/07 10:11:31;;;;;;;;;;;23.40;63.70;;;;;;5027590;28;19913;-69
2023/09/07 10:14:13;;;;;;;;;;;23.30;63.60;;;;;;5030778;28;19932;-69
2023/09/07 10:16:47;;;;;;;;;;;23.40;63.70;;;;;;5043410;28;19921;-69
2023/09/07 10:19:20;;;;;;;;;;;23.30;63.60;;;;;;5035288;28;20362;-69
2023/09/07 10:21:48;;;;;;;;;;;23.20;63.80;;;;;;5034476;28;19921;-70
2023/09/07 10:24:25;;;;;;;;;;;23.20;63.70;;;;;;5033784;28;20380;-70
2023/09/07 10:26:58;;;;;;;;;;;23.20;64.00;;;;;;5034292;28;19963;-69
2023/09/07 10:29:25;;;;;;;;;;;23.20;64.20;;;;;;5035944;28;20279;-70
2023/09/07 10:31:52;;;;;;;;;;;23.10;64.20;;;;;;5035650;28;19909;-70
2023/09/07 10:34:19;;;;;;;;;;;23.00;64.50;;;;;;5034680;28;20015;-69
2023/09/07 10:36:46;;;;;;;;;;;23.00;64.70;;;;;;5033329;28;19917;-70
2023/09/07 10:39:12;;;;;;;;;;;23.10;64.50;;;;;;5034070;28;19913;-70
2023/09/07 10:41:43;;;;;;;;;;;23.00;64.80;;;;;;5032488;28;19913;-69
2023/09/07 10:44:13;;;;;;;;;;;22.90;65.00;;;;;;5033739;28;20020;-69
2023/09/07 10:46:40;;;;;;;;;;;22.80;65.40;;;;;;5032310;28;19919;-69
2023/09/07 10:49:09;;;;;;;;;;;22.70;65.70;;;;;;5032634;28;19962;-70
2023/09/07 10:51:43;;;;;;;;;;;22.70;65.80;;;;;;5035194;28;19916;-70
2023/09/07 10:54:17;;;;;;;;;;;22.70;65.80;;;;;;5032747;28;20343;-70
2023/09/07 10:56:45;;;;;;;;;;;22.60;65.80;;;;;;5032085;28;19953;-70
2023/09/07 10:59:13;;;;;;;;;;;22.60;66.10;;;;;;5030854;28;19917;-69
2023/09/07 11:01:40;;;;;;;;;;;22.50;66.40;;;;;;5031592;28;19981;-70
2023/09/07 11:04:08;;;;;;;;;;;22.50;66.50;;;;;;5034274;28;19939;-69
2023/09/07 11:06:35;;;;;;;;;;;22.50;66.50;;;;;;5029426;28;20313;-70
2023/09/07 11:09:04;;;;;;;;;;;22.50;66.30;;;;;;5029090;28;19928;-70
2023/09/07 11:11:34;;;;;;;;;;;22.50;66.30;;;;;;5032211;28;19939;-70
2023/09/07 11:14:02;;;;;;;;;;;22.40;66.40;;;;;;5032258;28;19929;-70
2023/09/07 11:16:29;;;;;;;;;;;22.40;66.70;;;;;;5024882;28;19917;-70
2023/09/07 11:18:55;;;;;;;;;;;22.40;66.80;;;;;;5030504;28;19921;-70
2023/09/07 11:21:23;;;;;;;;;;;22.40;66.40;;;;;;5033073;28;19917;-70
2023/09/07 11:23:51;;;;;;;;;;;22.30;66.40;;;;;;5034624;28;19909;-70
2023/09/07 11:26:17;;;;;;;;;;;22.30;66.60;;;;;;5031431;28;20256;-70
2023/09/07 11:28:46;;;;;;;;;;;22.30;66.70;;;;;;5030512;28;19909;-69
2023/09/07 11:31:13;;;;;;;;;;;22.20;66.50;;;;;;5029474;28;19958;-70
2023/09/07 11:33:41;;;;;;;;;;;22.40;66.00;;;;;;5027627;28;19925;-68
2023/09/07 11:36:08;;;;;;;;;;;22.70;64.90;;;;;;5031845;28;20267;-69
2023/09/07 11:38:37;;;;;;;;;;;22.80;63.90;;;;;;5032377;28;19924;-69
2023/09/07 11:41:04;;;;;;;;;;;22.90;63.10;;;;;;5030934;28;20412;-68
2023/09/07 11:43:31;;;;;;;;;;;23.00;62.70;;;;;;5033397;28;19917;-69
2023/09/07 11:45:58;;;;;;;;;;;23.00;62.30;;;;;;5031326;28;19929;-69
2023/09/07 11:48:24;;;;;;;;;;;22.90;62.70;;;;;;5027492;28;19924;-70
2023/09/07 11:50:51;;;;;;;;;;;22.90;62.80;;;;;;5028842;28;19946;-68
2023/09/07 11:53:18;;;;;;;;;;;22.90;62.90;;;;;;5032209;28;19917;-70
2023/09/07 11:55:45;;;;;;;;;;;22.80;63.00;;;;;;5028865;28;20320;-69
2023/09/07 11:58:11;;;;;;;;;;;22.90;63.00;;;;;;5031408;28;19967;-69
2023/09/07 12:00:40;;;;;;;;;;;22.80;62.90;;;;;;5032614;28;19921;-69
2023/09/07 12:03:07;;;;;;;;;;;22.50;66.30;;;;;;5030886;28;19916;-70
2023/09/07 12:05:35;;;;;;;;;;;22.10;66.80;;;;;;5030190;28;19917;-70
2023/09/07 12:08:02;;;;;;;;;;;21.70;67.50;;;;;;5031755;28;19939;-70
2023/09/07 12:10:29;;;;;;;;;;;21.60;68.60;;;;;;5027120;28;19917;-70
2023/09/07 12:12:56;;;;;;;;;;;21.60;70.10;;;;;;5033470;28;19925;-72
2023/09/07 12:15:22;;;;;;;;;;;21.50;69.90;;;;;;5029056;28;20390;-69
2023/09/07 12:17:54;;;;;;;;;;;21.50;71.50;;;;;;5030793;28;19925;-69
2023/09/07 12:20:21;;;;;;;;;;;21.40;72.30;;;;;;5031285;28;19913;-70
2023/09/07 12:22:48;;;;;;;;;;;21.30;73.20;;;;;;5030573;28;19917;-71
2023/09/07 12:25:15;;;;;;;;;;;21.20;74.00;;;;;;5035380;28;19940;-72
2023/09/07 12:27:43;;;;;;;;;;;21.20;75.30;;;;;;5032457;28;19917;-71
2023/09/07 12:30:12;;;;;;;;;;;21.10;77.70;;;;;;5031647;28;19913;-70
2023/09/07 12:32:40;;;;;;;;;;;20.90;80.60;;;;;;5030397;28;20325;-69
2023/09/07 12:35:08;;;;;;;;;;;20.60;82.40;;;;;;5031506;28;19921;-70
2023/09/07 12:37:36;;;;;;;;;;;20.40;83.60;;;;;;5032552;28;19913;-70
2023/09/07 12:40:12;;;;;;;;;;;20.30;85.30;;;;;;5037297;28;20367;-69
2023/09/07 12:42:40;;;;;;;;;;;20.30;86.50;;;;;;5032095;28;19913;-70
2023/09/07 12:45:08;;;;;;;;;;;20.20;87.20;;;;;;5029975;28;19921;-70
2023/09/07 12:47:35;;;;;;;;;;;20.10;89.80;;;;;;5031192;28;19920;-71
2023/09/07 12:50:02;;;;;;;;;;;20.10;89.40;;;;;;5031872;28;19998;-71
2023/09/07 12:52:29;;;;;;;;;;;20.10;86.80;;;;;;5033962;28;19913;-71
2023/09/07 12:54:56;;;;;;;;;;;20.20;87.60;;;;;;5030306;28;19928;-71
2023/09/07 12:57:22;;;;;;;;;;;20.00;88.70;;;;;;5030461;28;20008;-70
2023/09/07 12:59:49;;;;;;;;;;;19.90;89.20;;;;;;5032328;28;19913;-70
2023/09/07 13:02:16;;;;;;;;;;;19.90;90.40;;;;;;5044147;28;19921;-71
2023/09/07 13:04:47;;;;;;;;;;;19.80;90.90;;;;;;5031563;28;19913;-70
2023/09/07 13:07:14;;;;;;;;;;;19.70;90.90;;;;;;5029833;28;19913;-69
2023/09/07 13:09:43;;;;;;;;;;;19.70;90.90;;;;;;5046948;28;19909;-70
2023/09/07 13:12:09;;;;;;;;;;;19.80;90.80;;;;;;5030681;28;19914;-70
2023/09/07 13:14:36;;;;;;;;;;;19.80;91.20;;;;;;5030478;28;19935;-70
2023/09/07 13:17:03;;;;;;;;;;;19.80;91.40;;;;;;5031182;28;19909;-70
2023/09/07 13:19:30;;;;;;;;;;;19.70;91.50;;;;;;5029888;28;19917;-70
2023/09/07 13:21:56;;;;;;;;;;;19.60;92.20;;;;;;5026876;28;21961;-71
2023/09/07 13:24:23;;;;;;;;;;;19.50;92.60;;;;;;5029375;28;19917;-71
2023/09/07 13:26:51;;;;;;;;;;;19.50;92.30;;;;;;5026302;28;20010;-70
2023/09/07 13:29:18;;;;;;;;;;;19.50;92.00;;;;;;5027995;28;19917;-71
2023/09/07 13:31:45;;;;;;;;;;;19.60;91.90;;;;;;5026494;28;19965;-71
2023/09/07 13:34:12;;;;;;;;;;;19.60;92.00;;;;;;5027696;28;19921;-71
2023/09/07 13:36:38;;;;;;;;;;;19.70;91.50;;;;;;5026301;28;19989;-71
2023/09/07 13:39:05;;;;;;;;;;;19.70;91.90;;;;;;5028284;28;19921;-70
2023/09/07 13:41:32;;;;;;;;;;;19.60;91.60;;;;;;5029039;28;19917;-70
2023/09/07 13:43:58;;;;;;;;;;;19.70;91.30;;;;;;5026633;28;19917;-70
2023/09/07 13:46:25;;;;;;;;;;;19.80;90.10;;;;;;5024604;28;20496;-71
2023/09/07 13:48:52;;;;;;;;;;;19.90;90.00;;;;;;5027069;28;19917;-70
2023/09/07 13:51:19;;;;;;;;;;;19.80;90.20;;;;;;5026489;28;19971;-70
2023/09/07 13:53:45;;;;;;;;;;;20.00;89.60;;;;;;5026531;28;19994;-70
2023/09/07 13:56:12;;;;;;;;;;;20.10;87.80;;;;;;5027772;28;19917;-70
2023/09/07 13:58:39;;;;;;;;;;;20.10;87.40;;;;;;5045733;28;19959;-70
2023/09/07 14:01:06;;;;;;;;;;;20.10;87.80;;;;;;5026767;28;20369;-70
2023/09/07 14:03:32;;;;;;;;;;;20.10;87.20;;;;;;5030826;28;19920;-69
2023/09/07 14:05:59;;;;;;;;;;;20.10;87.90;;;;;;5025159;28;20369;-71
2023/09/07 14:08:26;;;;;;;;;;;20.20;87.40;;;;;;5030143;28;20425;-70
2023/09/07 14:10:52;;;;;;;;;;;20.20;86.80;;;;;;5030789;28;20385;-71
2023/09/07 14:13:19;;;;;;;;;;;20.00;88.00;;;;;;5029046;28;21079;-71
2023/09/07 14:15:46;;;;;;;;;;;19.90;88.70;;;;;;5032114;28;19951;-70
2023/09/07 14:18:13;;;;;;;;;;;19.90;88.60;;;;;;5033533;28;19979;-71